createdAt,value
2022-08-26T00:04:38.591Z,71.26
2022-08-26T00:09:42.612Z,71.75
2022-08-26T00:14:49.166Z,71.49
2022-08-26T00:19:53.776Z,72.00
2022-08-26T00:24:58.606Z,72.39
2022-08-26T00:30:06.846Z,72.79
2022-08-26T00:35:13.289Z,72.74
2022-08-26T00:40:22.632Z,73.27
2022-08-26T00:45:27.387Z,73.56
2022-08-26T00:50:32.603Z,73.83
2022-08-26T00:55:39.995Z,73.90
2022-08-26T01:00:45.248Z,73.61
2022-08-26T01:05:51.930Z,74.23
2022-08-26T01:10:59.859Z,74.33
2022-08-26T01:16:06.368Z,74.14
2022-08-26T01:21:18.132Z,74.60
2022-08-26T01:26:29.768Z,75.02
2022-08-26T01:31:46.432Z,75.57
2022-08-26T01:36:52.773Z,75.71
2022-08-26T01:42:02.909Z,76.76
2022-08-26T01:47:07.784Z,76.77
2022-08-26T01:52:14.516Z,77.40
2022-08-26T01:57:17.022Z,77.20
2022-08-26T02:02:21.958Z,76.84
2022-08-26T02:07:27.352Z,77.70
2022-08-26T02:12:30.787Z,77.80
2022-08-26T02:17:41.045Z,78.20
2022-08-26T02:22:45.239Z,78.66
2022-08-26T02:27:47.650Z,78.23
2022-08-26T02:32:52.157Z,79.04
2022-08-26T02:37:59.199Z,79.58
2022-08-26T02:43:01.065Z,79.63
2022-08-26T02:48:13.606Z,79.77
2022-08-26T02:53:25.090Z,80.26
2022-08-26T02:58:30.211Z,80.57
2022-08-26T03:03:33.752Z,81.14
2022-08-26T03:08:36.493Z,81.89
2022-08-26T03:13:39.908Z,81.65
2022-08-26T03:18:42.010Z,82.71
2022-08-26T03:23:46.338Z,82.59
2022-08-26T03:29:06.534Z,83.05
2022-08-26T03:34:11.260Z,82.87
2022-08-26T03:39:16.104Z,82.71
2022-08-26T03:44:22.098Z,83.74
2022-08-26T03:49:32.170Z,83.68
2022-08-26T03:54:36.582Z,84.92
2022-08-26T03:59:41.953Z,84.60
2022-08-26T04:04:50.386Z,84.51
2022-08-26T04:10:02.162Z,85.25
2022-08-26T04:15:12.547Z,85.05
2022-08-26T04:20:16.236Z,85.28
2022-08-26T04:25:21.289Z,85.14
2022-08-26T04:30:32.417Z,85.84
2022-08-26T04:35:37.116Z,86.66
2022-08-26T04:40:46.901Z,85.27
2022-08-26T04:45:50.816Z,85.78
2022-08-26T04:50:55.854Z,86.57
2022-08-26T04:55:57.557Z,86.18
2022-08-26T05:00:59.865Z,86.84
2022-08-26T05:06:05.510Z,87.07
2022-08-26T05:11:07.813Z,87.54
2022-08-26T05:16:13.919Z,88.10
2022-08-26T05:21:23.605Z,88.08
2022-08-26T05:26:29.335Z,88.87
2022-08-26T05:31:32.336Z,89.00
2022-08-26T05:36:35.715Z,89.60
2022-08-26T05:41:42.948Z,90.23
2022-08-26T05:46:51.252Z,90.32
2022-08-26T05:51:53.060Z,90.70
2022-08-26T05:56:54.761Z,91.52
2022-08-26T06:01:57.671Z,91.07
2022-08-26T06:07:01.048Z,91.70
2022-08-26T06:12:04.059Z,90.54
2022-08-26T06:17:11.047Z,89.68
2022-08-26T06:22:35.410Z,89.22
2022-08-26T06:27:42.552Z,89.13
2022-08-26T06:32:49.447Z,89.03
2022-08-26T06:37:53.443Z,88.27
2022-08-26T06:42:58.017Z,88.04
2022-08-26T06:48:02.163Z,87.12
2022-08-26T06:53:04.662Z,87.22
2022-08-26T06:58:09.450Z,87.36
2022-08-26T07:03:16.184Z,86.70
2022-08-26T07:08:22.342Z,85.48
2022-08-26T07:13:30.673Z,85.92
2022-08-26T07:18:36.897Z,85.54
2022-08-26T07:23:46.976Z,84.14
2022-08-26T07:28:51.364Z,83.62
2022-08-26T07:33:59.947Z,83.67
2022-08-26T07:39:06.941Z,82.53
2022-08-26T07:44:11.009Z,81.18
2022-08-26T07:49:23.076Z,81.56
2022-08-26T07:54:27.336Z,80.01
2022-08-26T07:59:31.843Z,79.90
2022-08-26T08:04:38.536Z,78.72
2022-08-26T08:09:45.371Z,79.37
2022-08-26T08:14:50.257Z,79.19
2022-08-26T08:19:57.474Z,78.67
2022-08-26T08:25:00.944Z,79.46
2022-08-26T08:30:10.850Z,78.03
2022-08-26T08:35:17.473Z,77.06
2022-08-26T08:40:21.815Z,77.75
2022-08-26T08:45:41.960Z,76.66
2022-08-26T08:50:49.431Z,76.61
2022-08-26T08:56:08.713Z,76.06
2022-08-26T09:01:22.941Z,76.00
2022-08-26T09:06:27.769Z,76.23
2022-08-26T09:11:30.254Z,76.35
2022-08-26T09:16:59.425Z,76.18
2022-08-26T09:22:05.779Z,76.92
2022-08-26T09:27:36.574Z,75.74
2022-08-26T09:32:44.121Z,75.21
2022-08-26T09:38:00.864Z,74.26
2022-08-26T09:43:06.614Z,73.90
2022-08-26T09:48:14.241Z,74.30
2022-08-26T09:53:28.456Z,73.90
2022-08-26T09:58:39.513Z,73.39
2022-08-26T10:03:45.822Z,72.91
2022-08-26T10:08:55.307Z,74.00
2022-08-26T10:14:08.452Z,74.96
2022-08-26T10:19:15.852Z,75.31
2022-08-26T10:24:26.783Z,73.97
2022-08-26T10:29:34.333Z,72.57
2022-08-26T10:34:38.656Z,73.97
2022-08-26T10:39:51.881Z,74.69
2022-08-26T10:45:11.965Z,75.73
2022-08-26T10:50:23.208Z,74.68
2022-08-26T10:55:36.054Z,73.49
2022-08-26T11:01:01.261Z,73.55
2022-08-26T11:06:19.087Z,72.51
2022-08-26T11:11:42.375Z,72.79
2022-08-26T11:16:49.756Z,72.51
2022-08-26T11:22:33.058Z,72.77
2022-08-26T11:27:41.565Z,74.47
2022-08-26T11:33:00.166Z,74.88
2022-08-26T11:38:25.586Z,75.30
2022-08-26T11:43:30.259Z,76.47
2022-08-26T11:48:39.972Z,77.71
2022-08-26T11:53:47.499Z,78.58
2022-08-26T11:58:49.934Z,78.23
2022-08-26T12:03:52.591Z,78.70
2022-08-26T12:09:02.352Z,78.79
2022-08-26T12:14:09.019Z,78.58
2022-08-26T12:19:32.842Z,80.04
2022-08-26T12:24:43.851Z,79.93
2022-08-26T12:30:10.138Z,80.13
2022-08-26T12:35:16.858Z,79.84
2022-08-26T12:40:33.005Z,79.51
2022-08-26T12:45:43.121Z,79.91
2022-08-26T12:50:50.541Z,80.39
2022-08-26T12:56:00.238Z,80.12
2022-08-26T13:01:08.377Z,80.78
2022-08-26T13:06:25.916Z,79.88
2022-08-26T13:11:29.140Z,79.85
2022-08-26T13:16:33.880Z,80.28
2022-08-26T13:21:43.021Z,81.30
2022-08-26T13:26:46.552Z,81.91
2022-08-26T13:31:51.942Z,82.74
2022-08-26T13:36:56.279Z,82.66
2022-08-26T13:41:58.355Z,82.96
2022-08-26T13:47:00.165Z,81.29
2022-08-26T13:52:03.695Z,79.39
2022-08-26T13:57:08.158Z,77.83
2022-08-26T14:02:10.046Z,77.94
2022-08-26T14:07:11.926Z,76.26
2022-08-26T14:12:16.623Z,75.38
2022-08-26T14:17:21.377Z,75.13
2022-08-26T14:22:23.185Z,74.13
2022-08-26T14:27:25.510Z,72.20
2022-08-26T14:32:29.984Z,70.18
2022-08-26T14:37:32.850Z,68.13
2022-08-26T14:42:34.834Z,67.21
2022-08-26T14:47:41.470Z,63.86
2022-08-26T14:53:08.131Z,62.09
2022-08-26T14:58:13.728Z,63.55
2022-08-26T15:08:24.568Z,61.18
2022-08-26T15:13:26.372Z,63.17
2022-08-26T15:18:31.708Z,62.43
2022-08-26T15:23:39.321Z,59.98
2022-08-26T15:28:53.084Z,56.69
2022-08-26T15:33:56.446Z,58.87
2022-08-26T15:39:00.290Z,58.50
2022-08-26T15:44:03.668Z,58.90
2022-08-26T15:49:08.088Z,59.27
2022-08-26T15:54:22.105Z,59.38
2022-08-26T15:59:26.905Z,61.25
2022-08-26T16:04:31.181Z,61.61
2022-08-26T16:09:33.058Z,61.47
2022-08-26T16:14:40.587Z,62.21
2022-08-26T16:19:44.623Z,63.14
2022-08-26T16:24:49.005Z,65.14
2022-08-26T16:29:51.067Z,65.31
2022-08-26T16:34:56.663Z,66.10
2022-08-26T16:40:01.321Z,67.03
2022-08-26T16:45:08.787Z,66.62
2022-08-26T16:50:14.657Z,68.60
2022-08-26T16:55:16.660Z,69.78
2022-08-26T17:00:28.033Z,70.21
2022-08-26T17:05:29.937Z,70.60
2022-08-26T17:10:35.053Z,71.99
2022-08-26T17:15:37.044Z,72.60
2022-08-26T17:20:41.737Z,72.12
2022-08-26T17:25:43.860Z,72.23
2022-08-26T17:30:48.117Z,73.52
2022-08-26T17:35:56.458Z,74.30
2022-08-26T17:41:00.204Z,74.43
2022-08-26T17:46:07.010Z,74.79
2022-08-26T17:51:14.010Z,74.91
2022-08-26T17:56:24.202Z,75.04
2022-08-26T18:01:28.592Z,74.57
2022-08-26T18:06:33.027Z,74.45
2022-08-26T18:11:37.243Z,75.21
2022-08-26T18:16:41.626Z,75.50
2022-08-26T18:21:44.058Z,75.35
2022-08-26T18:26:51.676Z,75.44
2022-08-26T18:31:58.218Z,76.42
2022-08-26T18:36:59.990Z,76.87
2022-08-26T18:42:07.237Z,77.63
2022-08-26T18:47:12.144Z,77.69
2022-08-26T18:52:18.089Z,77.36
2022-08-26T18:57:20.914Z,78.02
2022-08-26T19:02:24.969Z,78.37
2022-08-26T19:07:29.685Z,77.74
2022-08-26T19:12:33.562Z,78.20
2022-08-26T19:17:40.124Z,78.70
2022-08-26T19:22:41.849Z,77.87
2022-08-26T19:27:45.684Z,79.53
2022-08-26T19:32:52.826Z,78.92
2022-08-26T19:37:57.114Z,78.85
2022-08-26T19:43:01.096Z,79.09
2022-08-26T19:48:06.229Z,79.19
2022-08-26T19:53:12.495Z,79.37
2022-08-26T19:58:16.539Z,79.29
2022-08-26T20:03:18.354Z,78.89
2022-08-26T20:08:22.814Z,79.12
2022-08-26T20:13:26.958Z,78.29
2022-08-26T20:18:49.473Z,78.03
2022-08-26T20:23:51.744Z,77.97
2022-08-26T20:28:56.273Z,77.72
2022-08-26T20:34:01.516Z,77.61
2022-08-26T20:39:10.823Z,77.79
2022-08-26T20:44:16.679Z,77.19
2022-08-26T20:49:18.746Z,78.09
2022-08-26T20:54:27.527Z,77.87
2022-08-26T20:59:32.592Z,77.78
2022-08-26T21:04:36.667Z,78.27
2022-08-26T21:09:41.330Z,78.01
2022-08-26T21:14:49.860Z,78.23
2022-08-26T21:19:54.064Z,77.99
2022-08-26T21:24:56.473Z,78.08
2022-08-26T21:30:00.741Z,78.55
2022-08-26T21:35:05.685Z,78.45
2022-08-26T21:40:11.282Z,78.39
2022-08-26T21:45:13.135Z,77.99
2022-08-26T21:50:14.940Z,77.82
2022-08-26T21:55:19.190Z,77.24
2022-08-26T22:00:23.178Z,76.42
2022-08-26T22:05:27.321Z,77.50
2022-08-26T22:10:32.014Z,77.10
2022-08-26T22:15:35.592Z,77.74
2022-08-26T22:20:37.439Z,78.22
2022-08-26T22:25:39.336Z,79.07
2022-08-26T22:30:44.337Z,79.24
2022-08-26T22:35:52.775Z,79.11
2022-08-26T22:41:00.247Z,78.74
2022-08-26T22:46:04.286Z,78.27
2022-08-26T22:51:06.486Z,77.85
2022-08-26T22:56:13.801Z,77.38
2022-08-26T23:01:16.965Z,77.29
2022-08-26T23:06:18.891Z,77.11
2022-08-26T23:11:24.060Z,76.56
2022-08-26T23:16:25.892Z,76.31
2022-08-26T23:21:29.992Z,76.17
2022-08-26T23:26:35.003Z,76.18
2022-08-26T23:31:38.530Z,76.92
2022-08-26T23:36:42.425Z,77.20
2022-08-26T23:41:46.290Z,77.14
2022-08-26T23:46:49.315Z,76.01
2022-08-26T23:52:12.874Z,76.56
2022-08-26T23:57:16.616Z,76.39
